createdAt,value
2019-02-16T00:02:37.554Z,48.30
2019-02-16T00:05:42.409Z,48.30
2019-02-16T00:08:47.299Z,48.30
2019-02-16T00:11:52.138Z,48.60
2019-02-16T00:14:56.978Z,48.90
2019-02-16T00:18:01.799Z,48.90
2019-02-16T00:21:06.774Z,48.80
2019-02-16T00:24:11.619Z,48.90
2019-02-16T00:27:16.498Z,48.80
2019-02-16T00:30:21.319Z,49.00
2019-02-16T00:33:26.182Z,48.70
2019-02-16T00:36:31.080Z,49.30
2019-02-16T00:39:35.907Z,49.30
2019-02-16T00:42:40.759Z,49.40
2019-02-16T00:45:45.599Z,48.90
2019-02-16T00:48:50.448Z,49.20
2019-02-16T00:51:55.342Z,49.20
2019-02-16T00:55:00.267Z,50.00
2019-02-16T00:58:05.173Z,50.40
2019-02-16T01:01:10.000Z,50.60
2019-02-16T01:04:14.824Z,50.50
2019-02-16T01:07:19.637Z,50.80
2019-02-16T01:10:24.470Z,51.30
2019-02-16T01:13:29.277Z,51.70
2019-02-16T01:16:34.105Z,51.80
2019-02-16T01:19:38.957Z,52.10
2019-02-16T01:22:43.767Z,52.20
2019-02-16T01:25:48.624Z,52.20
2019-02-16T01:28:53.430Z,51.80
2019-02-16T01:31:59.226Z,51.90
2019-02-16T01:35:05.274Z,51.40
2019-02-16T01:38:10.123Z,52.00
2019-02-16T01:41:14.957Z,52.40
2019-02-16T01:44:19.806Z,52.30
2019-02-16T01:47:24.659Z,52.20
2019-02-16T01:50:29.494Z,52.00
2019-02-16T01:53:34.318Z,52.30
2019-02-16T01:56:39.165Z,52.50
2019-02-16T01:59:44.221Z,52.50
2019-02-16T02:02:49.041Z,52.90
2019-02-16T02:05:53.870Z,52.80
2019-02-16T02:08:58.752Z,53.40
2019-02-16T02:12:04.073Z,53.40
2019-02-16T02:15:09.814Z,53.50
2019-02-16T02:18:14.664Z,53.40
2019-02-16T02:21:19.475Z,54.00
2019-02-16T02:24:24.347Z,54.20
2019-02-16T02:27:29.191Z,54.10
2019-02-16T02:30:34.019Z,54.20
2019-02-16T02:33:38.845Z,54.50
2019-02-16T02:36:43.666Z,54.80
2019-02-16T02:39:48.518Z,55.00
2019-02-16T02:42:53.360Z,54.90
2019-02-16T02:45:58.291Z,55.40
2019-02-16T02:49:03.156Z,55.40
2019-02-16T02:52:08.009Z,55.60
2019-02-16T02:55:12.819Z,55.30
2019-02-16T02:58:17.654Z,55.50
2019-02-16T03:01:22.491Z,55.40
2019-02-16T03:04:27.314Z,55.40
2019-02-16T03:07:32.134Z,55.70
2019-02-16T03:10:36.980Z,55.70
2019-02-16T03:13:41.804Z,56.20
2019-02-16T03:16:46.619Z,56.20
2019-02-16T03:19:51.473Z,56.80
2019-02-16T03:23:11.757Z,56.60
2019-02-16T03:26:39.108Z,56.70
2019-02-16T03:29:58.194Z,56.90
2019-02-16T03:33:08.559Z,56.70
2019-02-16T03:36:51.067Z,57.10
2019-02-16T03:39:55.941Z,57.40
2019-02-16T03:43:00.808Z,57.50
2019-02-16T03:46:05.894Z,57.70
2019-02-16T03:49:10.795Z,57.80
2019-02-16T03:52:15.607Z,57.80
2019-02-16T03:55:20.455Z,58.10
2019-02-16T03:58:25.366Z,58.30
2019-02-16T04:01:30.183Z,58.10
2019-02-16T04:04:35.238Z,58.50
2019-02-16T04:07:40.100Z,58.30
2019-02-16T04:10:44.940Z,58.30
2019-02-16T04:13:49.828Z,58.80
2019-02-16T04:16:54.774Z,58.60
2019-02-16T04:19:59.647Z,58.70
2019-02-16T04:23:04.545Z,59.00
2019-02-16T04:26:09.579Z,59.10
2019-02-16T04:29:14.491Z,58.70
2019-02-16T04:32:19.318Z,59.00
2019-02-16T04:35:24.214Z,59.00
2019-02-16T04:38:29.027Z,59.30
2019-02-16T04:41:33.887Z,59.30
2019-02-16T04:44:38.705Z,59.20
2019-02-16T04:47:43.521Z,59.10
2019-02-16T04:50:48.378Z,59.40
2019-02-16T04:53:53.215Z,59.30
2019-02-16T04:56:58.218Z,59.70
2019-02-16T05:00:03.142Z,59.40
2019-02-16T05:03:07.986Z,59.60
2019-02-16T05:06:13.915Z,60.20
2019-02-16T05:09:18.747Z,59.60
2019-02-16T05:12:23.575Z,59.70
2019-02-16T05:15:28.416Z,58.80
2019-02-16T05:18:33.273Z,58.70
2019-02-16T05:21:38.215Z,58.80
2019-02-16T05:24:43.060Z,58.80
2019-02-16T05:27:47.975Z,58.70
2019-02-16T05:30:52.786Z,58.70
2019-02-16T05:33:57.642Z,58.70
2019-02-16T05:37:02.449Z,58.90
2019-02-16T05:40:09.126Z,58.70
2019-02-16T05:43:14.132Z,58.70
2019-02-16T05:46:19.060Z,58.60
2019-02-16T05:49:23.914Z,58.20
2019-02-16T05:52:28.752Z,58.00
2019-02-16T05:55:33.603Z,58.60
2019-02-16T05:58:38.664Z,57.80
2019-02-16T06:01:53.247Z,57.30
2019-02-16T06:04:50.101Z,57.70
2019-02-16T06:07:54.954Z,57.80
2019-02-16T06:11:00.692Z,57.70
2019-02-16T06:14:06.870Z,57.90
2019-02-16T06:17:12.662Z,57.70
2019-02-16T06:20:17.553Z,57.90
2019-02-16T06:23:22.383Z,57.90
2019-02-16T06:26:27.196Z,59.10
2019-02-16T06:29:32.030Z,58.50
2019-02-16T06:32:36.870Z,57.90
2019-02-16T06:35:43.360Z,57.80
2019-02-16T06:38:48.166Z,57.70
2019-02-16T06:41:53.046Z,57.80
2019-02-16T06:44:58.027Z,57.70
2019-02-16T06:48:02.847Z,57.70
2019-02-16T06:51:07.693Z,57.60
2019-02-16T06:54:12.506Z,57.60
2019-02-16T06:57:28.193Z,57.70
2019-02-16T07:00:33.077Z,57.60
2019-02-16T07:03:37.937Z,57.40
2019-02-16T07:06:42.861Z,57.60
2019-02-16T07:09:47.827Z,57.50
2019-02-16T07:12:52.723Z,57.40
2019-02-16T07:16:15.814Z,57.10
2019-02-16T07:19:24.698Z,56.80
2019-02-16T07:22:29.531Z,56.80
2019-02-16T07:25:34.361Z,56.80
2019-02-16T07:28:39.241Z,56.00
2019-02-16T07:31:44.091Z,56.00
2019-02-16T07:34:48.910Z,55.40
2019-02-16T07:37:54.111Z,55.30
2019-02-16T07:40:59.159Z,55.10
2019-02-16T07:44:05.651Z,54.80
2019-02-16T07:47:27.163Z,54.00
2019-02-16T07:50:45.595Z,53.00
2019-02-16T07:53:54.870Z,51.40
2019-02-16T07:57:04.291Z,51.50
2019-02-16T08:00:20.593Z,50.90
2019-02-16T08:03:30.137Z,48.30
2019-02-16T08:06:45.506Z,47.50
2019-02-16T08:10:10.070Z,47.30
2019-02-16T08:13:22.886Z,46.70
2019-02-16T08:16:41.310Z,46.70
2019-02-16T08:19:53.703Z,46.20
2019-02-16T08:23:06.145Z,46.30
2019-02-16T08:26:15.587Z,45.60
2019-02-16T08:29:25.046Z,45.30
2019-02-16T08:32:34.388Z,43.40
2019-02-16T08:35:46.624Z,42.90
2019-02-16T08:38:59.311Z,42.90
2019-02-16T08:42:05.799Z,41.70
2019-02-16T08:45:28.326Z,41.90
2019-02-16T08:48:35.427Z,41.30
2019-02-16T08:51:42.456Z,41.30
2019-02-16T08:55:04.121Z,39.00
2019-02-16T08:58:16.302Z,37.90
2019-02-16T09:01:27.432Z,37.70
2019-02-16T09:04:33.618Z,37.40
2019-02-16T09:07:40.062Z,36.40
2019-02-16T09:10:46.566Z,36.40
2019-02-16T09:13:58.725Z,35.80
2019-02-16T09:17:05.199Z,35.00
2019-02-16T09:20:23.907Z,35.40
2019-02-16T09:23:45.682Z,33.90
2019-02-16T09:26:52.158Z,34.20
2019-02-16T09:29:58.634Z,33.20
2019-02-16T09:33:05.138Z,32.70
2019-02-16T09:36:14.586Z,31.80
2019-02-16T09:39:26.538Z,31.60
2019-02-16T09:42:35.854Z,30.00
2019-02-16T09:45:47.982Z,30.30
2019-02-16T09:49:09.067Z,29.60
2019-02-16T09:52:21.363Z,28.70
2019-02-16T09:55:36.834Z,28.40
2019-02-16T09:58:46.245Z,28.10
2019-02-16T10:01:52.697Z,27.20
2019-02-16T10:05:04.883Z,26.40
2019-02-16T10:08:20.373Z,26.50
2019-02-16T10:11:29.725Z,25.00
2019-02-16T10:14:36.173Z,25.00
2019-02-16T10:17:57.722Z,24.10
2019-02-16T10:21:04.510Z,24.00
2019-02-16T10:24:18.230Z,23.40
2019-02-16T10:27:30.747Z,23.80
2019-02-16T10:30:53.598Z,23.20
2019-02-16T10:34:05.589Z,22.60
2019-02-16T10:37:18.117Z,22.70
2019-02-16T10:40:30.270Z,23.00
2019-02-16T10:43:39.859Z,22.80
2019-02-16T10:46:49.301Z,22.80
2019-02-16T10:49:58.203Z,22.40
2019-02-16T10:53:10.691Z,22.60
2019-02-16T10:56:17.188Z,22.80
2019-02-16T10:59:38.605Z,22.40
2019-02-16T11:02:45.057Z,22.20
2019-02-16T11:05:56.982Z,21.60
2019-02-16T11:09:06.375Z,21.90
2019-02-16T11:12:19.087Z,21.10
2019-02-16T11:15:37.396Z,21.40
2019-02-16T11:18:43.857Z,20.60
2019-02-16T11:22:04.378Z,21.60
2019-02-16T11:25:11.718Z,21.30
2019-02-16T11:28:19.634Z,20.40
2019-02-16T11:31:43.966Z,20.40
2019-02-16T11:34:59.301Z,21.50
2019-02-16T11:38:08.755Z,20.40
2019-02-16T11:41:18.946Z,20.70
2019-02-16T11:44:26.043Z,19.40
2019-02-16T11:47:38.426Z,19.40
2019-02-16T11:50:47.793Z,19.70
2019-02-16T11:54:08.929Z,20.10
2019-02-16T11:57:30.369Z,19.40
2019-02-16T12:00:54.666Z,20.00
2019-02-16T12:04:17.296Z,20.40
2019-02-16T12:07:32.766Z,19.00
2019-02-16T12:10:39.305Z,18.60
2019-02-16T12:13:51.761Z,19.30
2019-02-16T12:17:01.154Z,19.50
2019-02-16T12:20:10.268Z,19.30
2019-02-16T12:23:25.591Z,19.00
2019-02-16T12:26:44.046Z,18.30
2019-02-16T12:29:53.499Z,18.40
2019-02-16T12:33:16.386Z,17.70
2019-02-16T12:36:25.865Z,18.70
2019-02-16T12:39:35.254Z,18.00
2019-02-16T12:42:41.714Z,18.00
2019-02-16T12:46:00.295Z,17.70
2019-02-16T12:49:10.144Z,17.40
2019-02-16T12:52:25.795Z,15.60
2019-02-16T12:55:32.255Z,15.80
2019-02-16T12:58:47.590Z,15.80
2019-02-16T13:01:54.049Z,14.90
2019-02-16T13:05:00.530Z,15.90
2019-02-16T13:08:07.013Z,15.40
2019-02-16T13:11:25.689Z,16.10
2019-02-16T13:14:35.125Z,16.30
2019-02-16T13:17:47.198Z,15.20
2019-02-16T13:20:59.609Z,15.10
2019-02-16T13:24:17.757Z,14.60
2019-02-16T13:27:24.209Z,14.50
2019-02-16T13:30:30.694Z,15.10
2019-02-16T13:33:49.053Z,14.20
2019-02-16T13:36:58.437Z,14.20
2019-02-16T13:40:21.451Z,13.20
2019-02-16T13:43:27.937Z,14.30
2019-02-16T13:46:40.143Z,14.20
2019-02-16T13:49:55.890Z,13.60
2019-02-16T13:53:18.974Z,13.30
2019-02-16T13:56:25.425Z,13.40
2019-02-16T13:59:34.822Z,13.00
2019-02-16T14:02:41.307Z,13.20
2019-02-16T14:05:54.282Z,12.70
2019-02-16T14:09:00.738Z,13.60
2019-02-16T14:12:07.509Z,13.80
2019-02-16T14:15:13.962Z,13.50
2019-02-16T14:18:18.765Z,13.80
2019-02-16T14:21:23.613Z,13.20
2019-02-16T14:24:38.847Z,13.20
2019-02-16T14:27:43.650Z,13.40
2019-02-16T14:30:48.494Z,12.70
2019-02-16T14:33:53.409Z,13.40
2019-02-16T14:36:58.594Z,13.40
2019-02-16T14:40:04.114Z,13.20
2019-02-16T14:43:08.956Z,14.70
2019-02-16T14:46:13.773Z,16.50
2019-02-16T14:49:18.588Z,16.50
2019-02-16T14:52:23.448Z,17.10
2019-02-16T14:55:28.318Z,17.50
2019-02-16T14:58:33.140Z,17.50
2019-02-16T15:01:38.021Z,17.60
2019-02-16T15:04:42.868Z,17.50
2019-02-16T15:07:47.743Z,18.60
2019-02-16T15:10:52.574Z,18.50
2019-02-16T15:13:57.395Z,18.30
2019-02-16T15:17:02.213Z,18.10
2019-02-16T15:20:13.099Z,18.30
2019-02-16T15:23:18.163Z,19.10
2019-02-16T15:26:28.524Z,19.20
2019-02-16T15:29:29.533Z,18.80
2019-02-16T15:32:34.382Z,18.80
2019-02-16T15:35:39.323Z,19.30
2019-02-16T15:38:44.212Z,19.40
2019-02-16T15:41:49.754Z,19.40
2019-02-16T15:44:54.566Z,20.00
2019-02-16T15:47:59.390Z,19.60
2019-02-16T15:51:04.262Z,20.20
2019-02-16T15:54:09.114Z,20.40
2019-02-16T15:57:14.012Z,20.40
2019-02-16T16:00:23.213Z,20.30
2019-02-16T16:03:28.074Z,20.20
2019-02-16T16:06:32.960Z,20.20
2019-02-16T16:09:45.642Z,20.60
2019-02-16T16:13:00.831Z,21.10
2019-02-16T16:16:07.281Z,20.80
2019-02-16T16:19:19.953Z,21.00
2019-02-16T16:22:35.309Z,21.10
2019-02-16T16:25:41.773Z,21.40
2019-02-16T16:29:00.685Z,21.60
2019-02-16T16:32:10.939Z,21.70
2019-02-16T16:35:17.399Z,22.20
2019-02-16T16:38:26.550Z,21.90
2019-02-16T16:41:32.996Z,22.10
2019-02-16T16:44:39.453Z,22.40
2019-02-16T16:47:55.709Z,22.70
2019-02-16T16:51:05.406Z,23.10
2019-02-16T16:54:21.003Z,22.90
2019-02-16T16:57:27.470Z,23.20
2019-02-16T17:00:33.923Z,23.20
2019-02-16T17:03:40.405Z,23.50
2019-02-16T17:06:52.263Z,23.90
2019-02-16T17:10:07.557Z,24.10
2019-02-16T17:13:16.906Z,24.20
2019-02-16T17:16:23.362Z,24.30
2019-02-16T17:19:38.603Z,24.50
2019-02-16T17:22:45.097Z,24.70
2019-02-16T17:26:00.317Z,25.50
2019-02-16T17:29:09.732Z,24.80
2019-02-16T17:32:30.996Z,24.90
2019-02-16T17:35:40.382Z,25.10
2019-02-16T17:38:55.505Z,25.60
2019-02-16T17:42:01.988Z,25.50
2019-02-16T17:45:22.890Z,25.60
2019-02-16T17:48:45.298Z,25.90
2019-02-16T17:51:54.410Z,25.80
2019-02-16T17:55:00.882Z,25.80
2019-02-16T17:58:11.277Z,25.90
2019-02-16T18:01:17.883Z,26.10
2019-02-16T18:04:39.227Z,26.40
2019-02-16T18:07:54.499Z,26.50
2019-02-16T18:11:17.379Z,26.70
2019-02-16T18:14:29.782Z,27.10
2019-02-16T18:17:45.179Z,28.20
2019-02-16T18:20:54.406Z,28.50
2019-02-16T18:24:06.914Z,28.70
2019-02-16T18:27:13.419Z,29.30
2019-02-16T18:30:19.879Z,29.00
2019-02-16T18:33:40.296Z,29.20
2019-02-16T18:36:52.591Z,29.10
2019-02-16T18:39:59.123Z,29.10
2019-02-16T18:43:14.648Z,29.60
2019-02-16T18:46:30.290Z,29.60
2019-02-16T18:49:39.691Z,30.20
2019-02-16T18:52:46.150Z,29.90
2019-02-16T18:56:01.573Z,30.40
2019-02-16T18:59:08.091Z,30.30
2019-02-16T19:02:14.598Z,30.10
2019-02-16T19:05:22.021Z,30.60
2019-02-16T19:08:34.517Z,30.90
2019-02-16T19:11:41.001Z,31.50
2019-02-16T19:15:05.521Z,31.00
2019-02-16T19:18:12.075Z,31.50
2019-02-16T19:21:27.514Z,31.10
2019-02-16T19:24:39.589Z,31.00
2019-02-16T19:27:48.754Z,31.10
2019-02-16T19:31:01.194Z,31.30
2019-02-16T19:34:25.745Z,31.60
2019-02-16T19:37:35.030Z,31.60
2019-02-16T19:40:41.579Z,31.80
2019-02-16T19:43:48.119Z,32.30
2019-02-16T19:46:57.676Z,32.00
2019-02-16T19:50:10.358Z,32.50
2019-02-16T19:53:16.839Z,32.80
2019-02-16T19:56:29.391Z,32.20
2019-02-16T19:59:36.056Z,32.50
2019-02-16T20:02:42.657Z,32.50
2019-02-16T20:06:04.206Z,32.40
2019-02-16T20:09:13.737Z,32.20
2019-02-16T20:12:20.358Z,32.50
2019-02-16T20:15:27.058Z,32.10
2019-02-16T20:18:49.526Z,32.00
2019-02-16T20:21:56.052Z,31.10
2019-02-16T20:25:02.529Z,31.50
2019-02-16T20:28:18.343Z,31.40
2019-02-16T20:31:24.781Z,31.60
2019-02-16T20:34:31.792Z,31.60
2019-02-16T20:37:44.080Z,32.00
2019-02-16T20:40:53.655Z,32.40
2019-02-16T20:44:15.352Z,31.60
2019-02-16T20:47:38.223Z,31.80
2019-02-16T20:50:47.398Z,31.90
2019-02-16T20:53:56.522Z,32.00
2019-02-16T20:57:03.166Z,32.50
2019-02-16T21:00:17.497Z,32.80
2019-02-16T21:03:40.121Z,32.70
2019-02-16T21:06:49.531Z,32.50
2019-02-16T21:09:56.031Z,32.40
2019-02-16T21:13:02.565Z,32.90
2019-02-16T21:16:09.198Z,33.10
2019-02-16T21:19:32.626Z,33.30
2019-02-16T21:22:45.157Z,33.90
2019-02-16T21:26:08.186Z,34.10
2019-02-16T21:29:15.077Z,33.90
2019-02-16T21:32:24.519Z,34.00
2019-02-16T21:35:31.139Z,34.20
2019-02-16T21:38:46.369Z,36.10
2019-02-16T21:41:55.895Z,35.90
2019-02-16T21:45:02.375Z,36.10
2019-02-16T21:48:10.399Z,35.90
2019-02-16T21:51:20.031Z,35.80
2019-02-16T21:54:44.358Z,36.60
2019-02-16T21:58:07.778Z,37.00
2019-02-16T22:01:13.802Z,37.70
2019-02-16T22:04:23.038Z,37.70
2019-02-16T22:07:38.849Z,38.10
2019-02-16T22:11:04.227Z,38.50
2019-02-16T22:14:09.034Z,38.90
2019-02-16T22:17:13.978Z,38.90
2019-02-16T22:20:18.879Z,39.50
2019-02-16T22:23:23.732Z,39.30
2019-02-16T22:26:28.953Z,40.30
2019-02-16T22:29:33.799Z,40.50
2019-02-16T22:32:38.656Z,40.80
2019-02-16T22:35:43.763Z,41.50
2019-02-16T22:38:48.658Z,41.60
2019-02-16T22:41:54.627Z,42.00
2019-02-16T22:44:59.515Z,41.70
2019-02-16T22:48:04.378Z,41.80
2019-02-16T22:51:09.438Z,41.90
2019-02-16T22:54:14.798Z,41.90
2019-02-16T22:57:19.610Z,42.30
2019-02-16T23:00:38.166Z,42.00
2019-02-16T23:03:44.896Z,42.40
2019-02-16T23:06:49.873Z,43.10
2019-02-16T23:09:54.970Z,43.00
2019-02-16T23:12:59.788Z,43.10
2019-02-16T23:16:04.647Z,43.50
2019-02-16T23:19:09.757Z,43.50
2019-02-16T23:22:14.610Z,43.90
2019-02-16T23:25:19.438Z,43.50
2019-02-16T23:28:24.267Z,44.10
2019-02-16T23:31:29.294Z,44.20
2019-02-16T23:34:34.314Z,44.10
2019-02-16T23:37:39.201Z,44.30
2019-02-16T23:40:44.045Z,44.60
2019-02-16T23:43:48.922Z,45.10
2019-02-16T23:46:53.766Z,45.20
2019-02-16T23:49:58.594Z,45.20
2019-02-16T23:53:03.428Z,44.50
2019-02-16T23:56:08.257Z,44.30
2019-02-16T23:59:13.914Z,44.30
